Time;durP1;ratioP1;P1;durP2;ratioP2;P2;SDS_P1;SDS_P2;PMS_P1;PMS_P2;Temp;Humidity;BMP_temperature;BMP_pressure;BME280_temperature;BME280_humidity;BME280_pressure;Samples;Min_cycle;Max_cycle;Signal;HPM_P1;HPM_P2
2022/06/15 00:02:13;;;;;;;3.63;1.05;;;;;;;19.78;52.92;101406.16;7386082;19;20010;-80
2022/06/15 00:04:40;;;;;;;7.38;0.90;;;;;;;19.73;53.53;101405.09;7386858;19;20024;-78
2022/06/15 00:07:07;;;;;;;4.75;1.17;;;;;;;19.67;53.46;101404.03;7385080;19;20014;-79
2022/06/15 00:09:35;;;;;;;6.30;1.17;;;;;;;19.64;54.31;101396.44;7387234;19;20011;-79
2022/06/15 00:12:03;;;;;;;4.38;1.10;;;;;;;19.59;53.74;101405.06;7384241;19;20509;-79
2022/06/15 00:14:30;;;;;;;5.00;1.15;;;;;;;19.57;53.77;101406.25;7383678;19;20019;-78
2022/06/15 00:16:57;;;;;;;3.75;1.40;;;;;;;19.48;54.52;101402.09;7383559;19;20011;-79
2022/06/15 00:19:24;;;;;;;2.47;0.90;;;;;;;19.42;54.44;101402.84;7383953;19;20486;-79
2022/06/15 00:21:51;;;;;;;5.10;1.33;;;;;;;19.38;54.66;101398.94;7383121;19;19998;-80
2022/06/15 00:24:18;;;;;;;6.32;1.10;;;;;;;19.35;54.75;101391.31;7385836;19;20507;-79
2022/06/15 00:26:45;;;;;;;3.50;1.23;;;;;;;19.32;54.57;101389.88;7384933;19;20512;-79
2022/06/15 00:29:12;;;;;;;5.38;1.75;;;;;;;19.30;54.62;101385.75;7386750;19;20455;-79
2022/06/15 00:31:39;;;;;;;3.72;1.10;;;;;;;19.26;55.09;101387.97;7384152;19;20089;-79
2022/06/15 00:34:07;;;;;;;6.35;1.30;;;;;;;19.22;54.86;101384.88;7383025;19;20010;-79
2022/06/15 00:36:34;;;;;;;5.03;1.33;;;;;;;19.17;55.28;101387.31;7385341;19;20021;-79
2022/06/15 00:39:02;;;;;;;5.32;1.38;;;;;;;19.09;55.11;101387.47;7384346;19;20109;-80
2022/06/15 00:41:35;;;;;;;10.27;2.13;;;;;;;19.10;55.84;101389.09;7382833;19;20007;-78
2022/06/15 00:44:22;;;;;;;7.25;1.77;;;;;;;19.11;56.22;101389.91;7383653;19;20026;-79
2022/06/15 00:46:55;;;;;;;6.05;1.02;;;;;;;19.06;55.57;101390.50;7383880;19;20552;-79
2022/06/15 00:49:32;;;;;;;5.95;1.30;;;;;;;19.05;55.80;101393.34;7385844;19;20014;-79
2022/06/15 00:52:12;;;;;;;7.68;1.33;;;;;;;19.01;56.00;101390.25;7384040;19;20544;-79
2022/06/15 00:54:40;;;;;;;4.93;1.48;;;;;;;19.03;55.46;101384.75;7383290;19;20010;-79
2022/06/15 00:57:07;;;;;;;5.10;1.20;;;;;;;19.05;55.88;101383.50;7383015;19;20478;-79
2022/06/15 00:59:56;;;;;;;6.47;1.58;;;;;;;19.06;57.03;101393.19;7382534;19;20544;-79
2022/06/15 01:02:24;;;;;;;4.22;1.40;;;;;;;19.09;55.68;101389.31;7381395;19;20078;-79
2022/06/15 01:05:02;;;;;;;7.65;1.30;;;;;;;19.09;55.33;101391.97;7382177;19;20078;-80
2022/06/15 01:07:53;;;;;;;5.60;1.33;;;;;;;19.06;55.55;101387.00;7382517;19;20077;-79
2022/06/15 01:10:26;;;;;;;5.85;1.52;;;;;;;19.02;55.52;101383.91;7383671;19;20025;-79
2022/06/15 01:13:29;;;;;;;5.65;1.30;;;;;;;19.00;55.65;101377.94;7384586;19;20419;-79
2022/06/15 01:16:16;;;;;;;4.22;1.15;;;;;;;18.97;55.72;101374.84;7384176;19;20111;-80
2022/06/15 01:18:56;;;;;;;3.80;1.23;;;;;;;18.91;55.75;101378.28;7381074;19;20007;-79
2022/06/15 01:21:30;;;;;;;3.05;1.25;;;;;;;18.89;56.03;101377.66;7382699;19;20011;-79
2022/06/15 01:24:29;;;;;;;8.20;1.50;;;;;;;18.84;55.98;101367.59;7384455;19;20028;-78
2022/06/15 01:27:09;;;;;;;3.17;1.38;;;;;;;18.81;56.07;101370.63;7382758;19;20478;-78
2022/06/15 01:30:14;;;;;;;4.55;1.50;;;;;;;18.78;56.45;101373.69;7385744;19;20106;-78
2022/06/15 01:33:07;;;;;;;4.47;1.50;;;;;;;18.75;56.94;101380.22;7382523;19;20067;-77
2022/06/15 01:35:47;;;;;;;3.35;1.48;;;;;;;18.76;56.58;101373.88;7379989;19;20006;-79
2022/06/15 01:38:46;;;;;;;6.05;1.80;;;;;;;18.77;56.63;101372.84;7382824;19;20020;-77
2022/06/15 01:41:24;;;;;;;5.78;1.50;;;;;;;18.77;56.22;101364.03;7383871;19;20332;-78
2022/06/15 01:43:58;;;;;;;5.65;1.48;;;;;;;18.72;56.29;101363.78;7383241;19;20352;-79
2022/06/15 01:46:26;;;;;;;5.22;1.73;;;;;;;18.70;56.48;101363.13;7386246;19;20517;-79
2022/06/15 01:48:56;;;;;;;14.13;1.70;;;;;;;18.69;56.69;101364.19;7389405;19;20041;-79
2022/06/15 01:51:31;;;;;;;6.60;1.92;;;;;;;18.70;57.54;101361.31;7386816;19;20375;-79
2022/06/15 01:54:06;;;;;;;3.95;1.52;;;;;;;18.72;56.77;101358.44;7388348;19;20054;-78
2022/06/15 01:56:45;;;;;;;4.75;1.63;;;;;;;18.65;57.33;101363.72;7389312;19;20010;-79
2022/06/15 01:59:27;;;;;;;4.57;1.60;;;;;;;18.62;57.35;101352.63;7390920;19;20014;-79
2022/06/15 02:02:15;;;;;;;7.93;1.57;;;;;;;18.58;57.50;101360.19;7388845;19;20025;-79
2022/06/15 02:05:01;;;;;;;6.90;1.88;;;;;;;18.53;57.72;101357.25;7388634;19;20282;-80
2022/06/15 02:07:31;;;;;;;4.18;1.50;;;;;;;18.54;58.65;101348.25;7390053;19;20014;-80
2022/06/15 02:10:04;;;;;;;3.92;1.02;;;;;;;18.51;58.24;101356.59;7390125;19;20058;-80
2022/06/15 02:12:49;;;;;;;3.97;1.65;;;;;;;18.48;57.78;101356.16;7389774;19;20118;-79
2022/06/15 02:15:19;;;;;;;6.00;1.83;;;;;;;18.44;58.43;101350.38;7388744;19;20034;-80
2022/06/15 02:17:49;;;;;;;4.95;1.55;;;;;;;18.45;58.71;101356.53;7387737;19;20033;-79
2022/06/15 02:20:23;;;;;;;5.13;1.88;;;;;;;18.42;58.72;101347.09;7389139;19;20033;-80
2022/06/15 02:22:53;;;;;;;6.63;2.13;;;;;;;18.46;60.14;101355.53;7388873;19;20010;-79
2022/06/15 02:25:24;;;;;;;4.05;1.50;;;;;;;18.46;59.27;101350.19;7390412;19;20074;-79
2022/06/15 02:27:52;;;;;;;5.60;1.73;;;;;;;18.45;58.76;101356.53;7387178;19;20013;-79
2022/06/15 02:30:25;;;;;;;7.10;1.60;;;;;;;18.41;59.34;101355.25;7390131;19;20018;-80
2022/06/15 02:32:53;;;;;;;6.80;2.42;;;;;;;18.41;59.41;101355.25;7390280;19;20011;-78
2022/06/15 02:35:21;;;;;;;5.65;2.47;;;;;;;18.37;59.57;101360.16;7388625;19;20337;-79
2022/06/15 02:37:50;;;;;;;7.78;2.45;;;;;;;18.34;59.84;101368.53;7390187;19;20023;-79
2022/06/15 02:40:21;;;;;;;6.43;2.17;;;;;;;18.33;60.51;101365.06;7389548;19;20016;-80
2022/06/15 02:42:49;;;;;;;6.93;2.42;;;;;;;18.31;60.71;101355.59;7388345;19;20007;-80
2022/06/15 02:45:28;;;;;;;6.13;2.40;;;;;;;18.28;60.69;101354.16;7390146;19;20010;-79
2022/06/15 02:47:56;;;;;;;6.75;2.90;;;;;;;18.28;61.28;101354.16;7388703;19;20014;-79
2022/06/15 02:50:30;;;;;;;7.03;2.92;;;;;;;18.23;61.45;101358.38;7388905;19;20033;-79
2022/06/15 02:53:06;;;;;;;7.25;2.80;;;;;;;18.15;61.89;101363.81;7388652;19;20010;-80
2022/06/15 02:55:35;;;;;;;7.75;3.25;;;;;;;18.09;62.15;101357.41;7386913;19;20014;-79
2022/06/15 02:58:14;;;;;;;7.60;2.88;;;;;;;18.05;62.62;101364.13;7389736;19;20253;-79
2022/06/15 03:00:42;;;;;;;8.18;2.92;;;;;;;17.96;62.76;101367.94;7387099;19;20045;-80
2022/06/15 03:03:09;;;;;;;7.78;2.65;;;;;;;17.91;63.07;101376.47;7388057;19;20360;-79
2022/06/15 03:05:36;;;;;;;8.38;3.38;;;;;;;17.85;63.09;101374.56;7389139;19;20006;-79
2022/06/15 03:08:03;;;;;;;8.88;2.95;;;;;;;17.76;63.49;101365.03;7388169;19;20364;-79
2022/06/15 03:10:30;;;;;;;8.27;3.75;;;;;;;17.74;63.77;101374.19;7389602;19;20316;-80
2022/06/15 03:12:57;;;;;;;7.07;4.07;;;;;;;17.74;63.76;101384.84;7389124;19;20489;-79
2022/06/15 03:15:24;;;;;;;8.90;3.92;;;;;;;17.68;63.94;101377.59;7390405;19;20011;-79
2022/06/15 03:17:52;;;;;;;8.65;3.67;;;;;;;17.67;64.45;101378.63;7387032;19;20018;-79
2022/06/15 03:20:19;;;;;;;8.55;3.40;;;;;;;17.65;64.18;101365.50;7389343;19;20475;-79
2022/06/15 03:22:48;;;;;;;8.20;3.80;;;;;;;17.63;64.34;101367.50;7389030;19;20032;-79
2022/06/15 03:25:15;;;;;;;8.77;3.80;;;;;;;17.61;64.41;101355.41;7390195;19;20077;-79
2022/06/15 03:27:42;;;;;;;11.35;3.67;;;;;;;17.62;64.45;101347.25;7387309;19;20709;-79
2022/06/15 03:30:09;;;;;;;9.57;3.67;;;;;;;17.64;65.35;101352.38;7390796;19;20082;-79
2022/06/15 03:32:36;;;;;;;10.18;3.90;;;;;;;17.66;65.06;101345.03;7386372;19;20513;-79
2022/06/15 03:35:04;;;;;;;10.48;3.50;;;;;;;17.69;64.52;101342.81;7384346;19;20052;-79
2022/06/15 03:37:31;;;;;;;9.90;4.40;;;;;;;17.73;64.30;101348.59;7388877;19;20349;-79
2022/06/15 03:39:58;;;;;;;9.45;3.75;;;;;;;17.72;64.37;101337.16;7386290;19;20491;-79
2022/06/15 03:42:26;;;;;;;8.25;3.85;;;;;;;17.75;64.36;101343.91;7386439;19;20066;-79
2022/06/15 03:44:53;;;;;;;9.70;4.03;;;;;;;17.78;64.27;101343.53;7385943;19;20074;-79
2022/06/15 03:47:20;;;;;;;10.23;4.00;;;;;;;17.77;64.85;101348.06;7385800;19;20017;-80
2022/06/15 03:49:51;;;;;;;10.48;4.40;;;;;;;17.79;64.55;101351.34;7387276;19;20014;-78
2022/06/15 03:52:20;;;;;;;9.38;4.28;;;;;;;17.82;64.41;101355.47;7386291;19;20010;-79
2022/06/15 03:54:47;;;;;;;9.45;3.78;;;;;;;17.77;64.32;101350.72;7384685;19;20014;-79
2022/06/15 03:57:17;;;;;;;10.02;4.20;;;;;;;17.77;64.55;101345.41;7388285;19;20006;-80
2022/06/15 03:59:44;;;;;;;9.38;4.25;;;;;;;17.77;64.45;101347.22;7382818;19;20014;-79
2022/06/15 04:02:11;;;;;;;10.60;4.40;;;;;;;17.75;64.76;101347.41;7386638;19;20015;-80
2022/06/15 04:04:38;;;;;;;10.50;4.97;;;;;;;17.75;64.95;101346.56;7383790;19;20026;-80
2022/06/15 04:08:34;;;;;;;11.00;4.55;;;;;;;17.69;65.04;101340.16;7384320;19;20041;-78
2022/06/15 04:09:53;;;;;;;11.60;4.85;;;;;;;17.63;65.21;101348.06;7385805;19;20010;-79
2022/06/15 04:12:21;;;;;;;12.52;5.07;;;;;;;17.59;65.66;101346.75;7385755;19;20082;-79
2022/06/15 04:14:49;;;;;;;8.80;4.50;;;;;;;17.54;65.96;101344.66;7385311;19;20201;-79
2022/06/15 04:17:18;;;;;;;9.45;4.43;;;;;;;17.53;66.14;101337.66;7384995;19;20040;-79
2022/06/15 04:20:31;;;;;;;7.25;4.28;;;;;;;17.50;66.14;101349.53;7383743;19;20036;-79
2022/06/15 04:22:31;;;;;;;10.13;4.93;;;;;;;17.46;66.59;101344.75;7384690;19;20020;-80
2022/06/15 04:24:58;;;;;;;11.60;4.80;;;;;;;17.43;66.65;101348.59;7386681;19;20444;-79
2022/06/15 04:27:25;;;;;;;11.05;5.03;;;;;;;17.43;66.57;101345.94;7384344;19;20376;-79
2022/06/15 04:29:52;;;;;;;11.05;4.78;;;;;;;17.44;66.88;101349.44;7386787;19;20017;-80
2022/06/15 04:32:19;;;;;;;11.80;5.40;;;;;;;17.42;67.00;101357.59;7384580;19;20017;-78
2022/06/15 04:34:46;;;;;;;10.18;5.03;;;;;;;17.39;67.09;101357.13;7386793;19;20023;-78
2022/06/15 04:37:13;;;;;;;13.63;5.95;;;;;;;17.40;67.62;101359.63;7384461;19;20515;-78
2022/06/15 04:39:40;;;;;;;11.43;5.63;;;;;;;17.36;67.44;101362.84;7384113;19;20022;-80
2022/06/15 04:42:08;;;;;;;13.13;5.45;;;;;;;17.35;67.66;101355.88;7384906;19;20523;-79
2022/06/15 04:44:35;;;;;;;10.88;5.20;;;;;;;17.34;67.77;101357.69;7384692;19;20006;-80
2022/06/15 04:47:03;;;;;;;9.63;5.57;;;;;;;17.28;68.03;101353.09;7382557;19;20491;-80
2022/06/15 04:49:31;;;;;;;10.25;5.35;;;;;;;17.30;68.28;101363.56;7385087;19;20010;-78
2022/06/15 04:51:59;;;;;;;14.52;5.90;;;;;;;17.30;68.04;101363.56;7384848;19;20097;-79
2022/06/15 04:54:26;;;;;;;13.73;6.40;;;;;;;17.28;68.38;101361.09;7387450;19;20011;-79
2022/06/15 04:56:53;;;;;;;12.45;5.72;;;;;;;17.29;68.75;101369.91;7385677;19;20511;-79
2022/06/15 04:59:20;;;;;;;10.00;5.25;;;;;;;17.30;69.16;101364.41;7383869;19;20086;-79
2022/06/15 05:01:47;;;;;;;12.15;5.30;;;;;;;17.31;69.51;101359.91;7384873;19;20126;-79
2022/06/15 05:04:14;;;;;;;11.30;4.90;;;;;;;17.33;69.62;101368.50;7386279;19;20003;-80
2022/06/15 05:06:41;;;;;;;18.48;5.68;;;;;;;17.36;69.38;101371.66;7386296;19;20010;-79
2022/06/15 05:09:14;;;;;;;11.70;5.28;;;;;;;17.41;69.15;101371.94;7382738;19;20524;-79
2022/06/15 05:11:41;;;;;;;;;;;;;;;17.46;69.96;101366.88;7385204;19;20018;-78
2022/06/15 05:14:09;;;;;;;13.38;6.30;;;;;;;17.48;69.32;101370.16;7385524;19;19990;-79
2022/06/15 05:16:37;;;;;;;11.23;5.88;;;;;;;17.52;69.11;101370.63;7384977;19;20569;-79
2022/06/15 05:19:05;;;;;;;15.75;5.70;;;;;;;17.56;69.07;101371.09;7387600;19;20125;-79
2022/06/15 05:21:41;;;;;;;10.38;5.20;;;;;;;17.62;69.36;101371.22;7393734;19;20011;-79
2022/06/15 05:24:09;;;;;;;10.02;5.25;;;;;;;17.66;69.56;101375.16;7391777;19;20075;-79
2022/06/15 05:26:37;;;;;;;12.70;6.07;;;;;;;17.72;69.98;101384.22;7393326;19;20018;-81
2022/06/15 05:29:04;;;;;;;12.77;5.10;;;;;;;17.78;71.02;101383.47;7395527;19;20152;-79
2022/06/15 05:31:34;;;;;;;10.43;5.82;;;;;;;17.80;69.42;101378.78;7395293;19;20014;-79
2022/06/15 05:34:01;;;;;;;12.55;5.22;;;;;;;17.81;69.11;101375.94;7391506;19;20014;-79
2022/06/15 05:36:31;;;;;;;13.68;5.47;;;;;;;17.84;68.89;101378.22;7393684;19;20038;-80
2022/06/15 05:38:58;;;;;;;12.38;5.35;;;;;;;17.85;69.15;101382.53;7394360;19;20007;-80
2022/06/15 05:41:25;;;;;;;11.38;5.20;;;;;;;17.89;69.25;101389.16;7394750;19;20027;-80
2022/06/15 05:46:30;;;;;;;12.32;5.47;;;;;;;17.98;71.56;101381.88;7394471;19;20444;-79
2022/06/15 05:48:58;;;;;;;13.38;6.00;;;;;;;18.04;70.29;101383.78;7392920;19;20308;-80
2022/06/15 05:51:27;;;;;;;11.23;5.25;;;;;;;18.07;69.59;101386.09;7392570;19;20071;-80
2022/06/15 05:53:54;;;;;;;12.13;5.97;;;;;;;18.08;69.18;101381.59;7393998;19;20017;-80
2022/06/15 05:56:21;;;;;;;10.93;5.70;;;;;;;18.11;68.95;101389.19;7393093;19;20118;-80
2022/06/15 05:58:50;;;;;;;11.90;4.80;;;;;;;18.17;69.31;101389.28;7389940;19;20022;-80
2022/06/15 06:01:28;;;;;;;13.10;5.30;;;;;;;18.25;69.45;101389.16;7393199;19;20007;-79
2022/06/15 06:03:55;;;;;;;18.73;5.82;;;;;;;18.38;68.90;101397.28;7394175;19;20034;-80
2022/06/15 06:06:22;;;;;;;10.40;5.50;;;;;;;18.48;68.19;101391.66;7393070;19;20029;-80
2022/06/15 06:08:49;;;;;;;9.43;4.70;;;;;;;18.46;68.67;101392.84;7392619;19;20182;-80
2022/06/15 06:14:53;;;;;;;13.30;5.60;;;;;;;18.59;68.04;101393.00;7391845;19;20042;-80
2022/06/15 06:17:21;;;;;;;12.70;5.75;;;;;;;18.57;68.95;101403.03;7392935;19;20090;-79
2022/06/15 06:19:48;;;;;;;9.68;5.68;;;;;;;18.58;68.72;101410.00;7389304;19;20021;-80
2022/06/15 06:22:15;;;;;;;14.77;5.40;;;;;;;18.61;68.09;101398.97;7390064;19;20070;-80
2022/06/15 06:24:47;;;;;;;10.40;5.22;;;;;;;18.63;67.90;101397.75;7389933;19;20336;-79
2022/06/15 06:27:15;;;;;;;13.10;5.55;;;;;;;18.63;68.62;101399.59;7390833;19;20011;-79
2022/06/15 06:29:42;;;;;;;11.77;5.05;;;;;;;18.65;68.51;101402.88;7390217;19;20016;-78
2022/06/15 06:32:13;;;;;;;13.73;5.40;;;;;;;18.68;68.47;101407.84;7385370;19;20051;-78
2022/06/15 06:34:40;;;;;;;14.13;6.00;;;;;;;18.75;68.57;101398.88;7386476;19;20094;-79
2022/06/15 06:37:07;;;;;;;9.48;5.55;;;;;;;18.80;68.58;101407.13;7389104;19;20015;-79
2022/06/15 06:39:35;;;;;;;10.35;5.25;;;;;;;18.85;68.60;101406.53;7388521;19;20025;-79
2022/06/15 06:42:04;;;;;;;11.45;4.68;;;;;;;18.91;67.48;101410.28;7386527;19;20011;-78
2022/06/15 06:44:31;;;;;;;10.55;3.70;;;;;;;18.93;67.30;101406.44;7387939;19;20033;-79
2022/06/15 06:46:58;;;;;;;12.40;5.22;;;;;;;18.96;67.38;101410.53;7386110;19;20213;-78
2022/06/15 06:49:25;;;;;;;12.40;4.38;;;;;;;19.00;67.44;101411.78;7386147;19;20417;-80
2022/06/15 06:51:52;;;;;;;9.93;5.00;;;;;;;19.05;67.29;101409.38;7385794;19;20048;-79
2022/06/15 06:54:21;;;;;;;12.10;4.70;;;;;;;19.08;67.44;101411.66;7387609;19;20018;-79
2022/06/15 06:56:49;;;;;;;9.25;4.18;;;;;;;19.11;67.31;101416.59;7385584;19;20011;-78
2022/06/15 06:59:17;;;;;;;8.68;4.32;;;;;;;19.15;66.83;101416.03;7386186;19;20086;-79
2022/06/15 07:01:46;;;;;;;23.77;10.25;;;;;;;19.17;65.65;101418.50;7385208;19;20492;-78
2022/06/15 07:04:15;;;;;;;12.70;4.97;;;;;;;19.22;65.89;101411.56;7387073;19;20531;-79
2022/06/15 07:06:46;;;;;;;11.45;5.68;;;;;;;19.27;65.48;101415.47;7387221;19;20010;-80
2022/06/15 07:09:17;;;;;;;12.75;4.43;;;;;;;19.29;65.32;101418.78;7386844;19;20014;-78
2022/06/15 07:11:44;;;;;;;9.70;4.38;;;;;;;19.32;66.22;101421.06;7385933;19;20014;-79
2022/06/15 07:14:12;;;;;;;10.32;4.80;;;;;;;19.38;65.59;101421.13;7388741;19;20475;-79
2022/06/15 07:16:41;;;;;;;11.05;4.40;;;;;;;19.39;64.74;101425.44;7385293;19;20010;-79
2022/06/15 07:19:09;;;;;;;7.60;3.88;;;;;;;19.44;65.15;101424.84;7385011;19;20249;-79
2022/06/15 07:21:38;;;;;;;11.02;4.75;;;;;;;19.47;64.94;101425.31;7384101;19;20324;-80
2022/06/15 07:24:06;;;;;;;10.18;3.83;;;;;;;19.53;65.14;101435.19;7386965;19;20017;-79
2022/06/15 07:26:42;;;;;;;9.95;4.22;;;;;;;19.58;64.37;101423.94;7387975;19;20539;-81
2022/06/15 07:29:11;;;;;;;13.32;4.97;;;;;;;19.62;64.03;101430.53;7387920;19;20069;-81
2022/06/15 07:31:42;;;;;;;14.77;4.15;;;;;;;19.67;64.20;101430.75;7384104;19;20082;-79
2022/06/15 07:34:09;;;;;;;11.90;4.20;;;;;;;19.75;62.37;101427.94;7384645;19;20006;-78
2022/06/15 07:36:40;;;;;;;10.25;4.18;;;;;;;19.85;61.86;101438.25;7382408;19;20070;-79
2022/06/15 07:39:07;;;;;;;7.60;3.20;;;;;;;19.98;61.46;101433.78;7385703;19;20037;-79
2022/06/15 07:41:35;;;;;;;8.10;3.47;;;;;;;20.20;61.57;101426.47;7386575;19;20018;-79
2022/06/15 07:44:02;;;;;;;11.52;3.45;;;;;;;20.69;61.21;101434.19;7389568;19;20066;-79
2022/06/15 07:46:29;;;;;;;8.98;2.83;;;;;;;21.18;57.03;101431.13;7387033;19;20440;-79
2022/06/15 07:51:46;;;;;;;11.10;3.10;;;;;;;21.40;56.11;101436.28;7386650;19;20086;-80
2022/06/15 07:54:15;;;;;;;11.85;3.65;;;;;;;21.32;57.78;101434.66;7386980;19;20022;-79
2022/06/15 07:56:43;;;;;;;8.63;4.65;;;;;;;21.23;57.55;101431.34;7387434;19;20033;-80
2022/06/15 07:59:11;;;;;;;9.38;3.92;;;;;;;21.12;57.17;101433.81;7387267;19;20480;-79
2022/06/15 08:01:39;;;;;;;12.38;4.00;;;;;;;21.00;57.93;101440.81;7382610;19;20393;-80
2022/06/15 08:04:07;;;;;;;10.82;3.67;;;;;;;20.92;57.55;101440.00;7383121;19;20366;-80
2022/06/15 08:06:37;;;;;;;10.23;4.10;;;;;;;20.82;58.06;101436.91;7383580;19;20017;-79
2022/06/15 08:09:09;;;;;;;8.23;3.03;;;;;;;20.77;59.21;101438.53;7385718;19;20082;-79
2022/06/15 08:12:28;;;;;;;10.98;3.28;;;;;;;20.75;59.08;101438.75;7384301;19;20019;-79
2022/06/15 08:14:32;;;;;;;12.68;3.28;;;;;;;20.76;58.29;101445.75;7383989;19;20010;-79
2022/06/15 08:17:01;;;;;;;8.32;2.88;;;;;;;20.74;58.32;101449.63;7385794;19;20024;-79
2022/06/15 08:19:32;;;;;;;7.10;2.70;;;;;;;20.76;58.40;101436.91;7382875;19;20141;-79
2022/06/15 08:22:00;;;;;;;11.90;3.40;;;;;;;20.77;59.18;101435.88;7384260;19;20033;-79
2022/06/15 08:24:27;;;;;;;7.57;2.72;;;;;;;20.77;58.38;101439.38;7386968;19;20272;-79
2022/06/15 08:26:54;;;;;;;6.43;2.72;;;;;;;20.82;57.79;101434.22;7386773;19;20452;-79
2022/06/15 08:29:21;;;;;;;9.60;2.83;;;;;;;20.90;57.87;101439.38;7389081;19;20062;-79
2022/06/15 08:31:48;;;;;;;8.45;2.47;;;;;;;20.96;57.96;101434.22;7384512;19;20011;-80
2022/06/15 08:34:16;;;;;;;6.57;1.85;;;;;;;21.03;56.77;101435.84;7384071;19;20030;-80
2022/06/15 08:36:42;;;;;;;11.00;2.20;;;;;;;21.09;56.80;101432.34;7384385;19;20064;-80
2022/06/15 08:39:09;;;;;;;71.85;37.90;;;;;;;21.14;55.73;101416.53;7385466;19;20061;-79
2022/06/15 08:41:36;;;;;;;8.48;3.15;;;;;;;21.17;55.86;101420.66;7387489;19;20007;-79
2022/06/15 08:44:12;;;;;;;7.68;1.85;;;;;;;21.16;55.80;101414.47;7387463;19;20021;-79
2022/06/15 08:47:18;;;;;;;7.07;1.88;;;;;;;21.18;54.88;101403.56;7384164;19;20028;-79
2022/06/15 08:49:48;;;;;;;7.95;1.95;;;;;;;21.22;55.68;101410.16;7383150;19;20505;-80
2022/06/15 08:52:32;;;;;;;7.05;1.48;;;;;;;21.29;55.43;101405.59;7382908;19;20033;-79
2022/06/15 08:55:22;;;;;;;9.43;1.33;;;;;;;21.34;54.97;101405.78;7382359;19;20086;-80
2022/06/15 08:57:52;;;;;;;7.97;1.63;;;;;;;21.38;54.13;101393.66;7384904;19;20114;-79
2022/06/15 09:00:31;;;;;;;2.55;1.23;;;;;;;21.43;53.75;101406.41;7382784;19;20011;-79
2022/06/15 09:03:21;;;;;;;6.00;1.35;;;;;;;21.44;52.85;101406.19;7383543;19;20418;-79
2022/06/15 09:05:59;;;;;;;5.25;1.17;;;;;;;21.48;53.51;101410.09;7384317;19;20014;-80
2022/06/15 09:08:44;;;;;;;5.35;1.15;;;;;;;21.54;53.27;101403.88;7382180;19;20033;-79
2022/06/15 09:11:38;;;;;;;9.68;1.65;;;;;;;21.61;53.16;101412.75;7380282;19;20355;-79
2022/06/15 09:14:35;;;;;;;8.27;1.10;;;;;;;21.66;53.41;101396.84;7383552;19;20071;-78
2022/06/15 09:17:07;;;;;;;5.90;0.90;;;;;;;21.75;52.30;101398.25;7383709;19;20010;-80
2022/06/15 09:19:43;;;;;;;4.93;1.02;;;;;;;21.84;50.70;101387.31;7382868;19;20018;-79
2022/06/15 09:22:16;;;;;;;3.63;1.00;;;;;;;21.94;51.64;101390.38;7381866;19;20148;-80
2022/06/15 09:24:48;;;;;;;5.95;1.45;;;;;;;22.03;51.01;101397.97;7384187;19;20327;-80
2022/06/15 09:27:26;;;;;;;4.67;1.03;;;;;;;22.13;49.90;101394.81;7383138;19;20030;-79
2022/06/15 09:30:03;;;;;;;6.25;1.27;;;;;;;22.25;49.93;101406.50;7383630;19;20352;-79
2022/06/15 09:32:35;;;;;;;6.78;0.80;;;;;;;22.38;48.86;101413.66;7383206;19;20078;-79
2022/06/15 09:35:38;;;;;;;3.50;0.93;;;;;;;22.50;50.48;101410.03;7380133;19;20320;-79
2022/06/15 09:38:10;;;;;;;7.30;1.17;;;;;;;22.59;48.09;101407.94;7380633;19;20023;-79
2022/06/15 09:40:51;;;;;;;5.38;0.80;;;;;;;22.69;47.88;101405.59;7382942;19;20033;-79
2022/06/15 09:43:38;;;;;;;3.88;1.00;;;;;;;22.77;47.13;101399.97;7384638;19;20014;-79
2022/06/15 09:46:14;;;;;;;3.45;0.90;;;;;;;22.85;46.85;101405.09;7384322;19;20007;-79
2022/06/15 09:49:21;;;;;;;4.05;0.73;;;;;;;22.98;46.33;101410.34;7383734;19;20019;-80
2022/06/15 09:51:57;;;;;;;3.90;0.77;;;;;;;23.12;47.43;101408.34;7383614;19;20014;-79
2022/06/15 09:54:42;;;;;;;4.18;0.85;;;;;;;23.20;46.23;101405.38;7384581;19;20046;-78
2022/06/15 09:57:12;;;;;;;6.30;1.45;;;;;;;23.23;46.04;101406.78;7382545;19;20324;-78
2022/06/15 09:59:40;;;;;;;6.70;0.90;;;;;;;23.28;45.84;101413.16;7385305;19;20381;-80
2022/06/15 10:02:19;;;;;;;4.40;0.70;;;;;;;23.37;46.27;101411.81;7344006;19;20074;-78
2022/06/15 10:04:49;;;;;;;11.55;6.35;;;;;;;23.49;45.45;101411.94;7375870;19;20048;-80
2022/06/15 10:07:39;;;;;;;5.72;2.15;;;;;;;23.59;45.62;101400.66;7384410;19;20514;-79
2022/06/15 10:10:24;;;;;;;3.65;0.70;;;;;;;23.67;45.60;101398.47;7387239;19;20018;-79
2022/06/15 10:12:56;;;;;;;3.53;1.08;;;;;;;23.75;45.80;101400.06;7386996;19;20022;-79
2022/06/15 10:15:24;;;;;;;4.07;0.90;;;;;;;23.81;45.15;101394.59;7387631;19;20006;-79
2022/06/15 10:17:55;;;;;;;3.65;0.82;;;;;;;23.88;45.65;101397.19;7385831;19;20081;-80
2022/06/15 10:20:35;;;;;;;3.15;0.80;;;;;;;23.94;44.34;101395.47;7383270;19;20011;-79
2022/06/15 10:23:24;;;;;;;5.50;0.90;;;;;;;23.96;45.06;101385.31;7386527;19;20029;-80
2022/06/15 10:25:55;;;;;;;5.43;1.00;;;;;;;24.04;44.82;101393.06;7386627;19;20033;-79
2022/06/15 10:28:26;;;;;;;7.90;1.10;;;;;;;24.15;44.95;101387.72;7388282;19;20018;-79
2022/06/15 10:31:02;;;;;;;3.93;1.10;;;;;;;24.15;44.13;101390.41;7387492;19;20018;-79
2022/06/15 10:33:41;;;;;;;3.97;1.05;;;;;;;24.22;44.25;101387.69;7387008;19;20598;-79
2022/06/15 10:36:33;;;;;;;6.80;1.27;;;;;;;24.33;44.47;101391.44;7387708;19;20381;-79
2022/06/15 10:39:24;;;;;;;2.38;0.60;;;;;;;24.40;43.93;101390.28;7387253;19;20015;-79
2022/06/15 10:42:07;;;;;;;4.70;0.88;;;;;;;24.38;42.86;101388.91;7382865;19;20002;-79
2022/06/15 10:44:41;;;;;;;9.32;2.88;;;;;;;24.41;42.42;101385.72;7386989;19;20015;-80
2022/06/15 10:48:06;;;;;;;5.70;1.00;;;;;;;24.43;42.76;101389.03;7386191;19;20359;-78
2022/06/15 10:51:13;;;;;;;5.28;1.00;;;;;;;24.36;43.08;101382.91;7381641;19;20041;-79
2022/06/15 10:53:49;;;;;;;2.85;0.90;;;;;;;24.33;42.06;101384.19;7386778;19;20011;-79
2022/06/15 11:02:37;;;;;;;3.80;0.80;;;;;;;24.45;42.21;101378.84;7384335;19;20363;-79
2022/06/15 11:05:16;;;;;;;3.10;0.80;;;;;;;24.47;42.66;101371.34;7382774;19;20019;-80
2022/06/15 11:08:04;;;;;;;2.95;0.80;;;;;;;24.52;42.96;101369.63;7382959;19;20043;-79
2022/06/15 11:10:34;;;;;;;3.35;0.70;;;;;;;24.54;42.05;101370.19;7385048;19;20070;-79
2022/06/15 11:13:19;;;;;;;5.85;1.30;;;;;;;24.58;41.97;101376.75;7386951;19;20024;-79
2022/06/15 11:19:06;;;;;;;2.72;0.88;;;;;;;24.68;42.39;101371.63;7384972;19;20018;-78
2022/06/15 11:21:47;;;;;;;12.02;1.42;;;;;;;24.74;42.67;101369.88;7381321;19;20348;-79
2022/06/15 11:24:35;;;;;;;6.10;1.15;;;;;;;24.81;41.44;101372.44;7384078;19;20034;-79
2022/06/15 11:27:09;;;;;;;3.17;0.73;;;;;;;24.83;41.25;101373.06;7388900;19;20017;-79
2022/06/15 11:29:54;;;;;;;4.65;0.85;;;;;;;24.92;40.09;101368.97;7384973;19;20090;-80
2022/06/15 11:32:27;;;;;;;3.63;0.77;;;;;;;24.90;39.69;101371.91;7386375;19;20006;-79
2022/06/15 11:34:58;;;;;;;4.70;0.70;;;;;;;24.89;40.90;101367.56;7382820;19;20559;-78
2022/06/15 11:37:35;;;;;;;5.82;1.05;;;;;;;24.87;40.84;101369.69;7353484;19;20043;-78
2022/06/15 11:40:14;;;;;;;4.10;1.08;;;;;;;24.89;40.30;101361.38;7386236;19;20011;-79
2022/06/15 11:42:53;;;;;;;3.35;0.60;;;;;;;24.94;40.23;101373.06;7384643;19;20375;-80
2022/06/15 11:45:44;;;;;;;1.50;0.50;;;;;;;24.94;38.73;101367.69;7387806;19;20007;-79
2022/06/15 11:48:31;;;;;;;5.07;0.63;;;;;;;24.96;38.68;101353.97;7383643;19;20021;-77
2022/06/15 11:51:29;;;;;;;5.13;0.70;;;;;;;24.97;39.50;101356.44;7385253;19;20006;-78
2022/06/15 11:54:20;;;;;;;2.70;0.50;;;;;;;25.03;38.78;101358.22;7388508;19;20472;-79
2022/06/15 11:57:12;;;;;;;1.58;0.60;;;;;;;25.06;38.06;101357.72;7389066;19;20014;-79
2022/06/15 11:59:55;;;;;;;3.15;0.57;;;;;;;25.01;39.12;101356.78;7386795;19;20018;-80
2022/06/15 12:02:22;;;;;;;3.85;0.80;;;;;;;24.99;39.12;101357.00;7386217;19;20007;-78
2022/06/15 12:05:10;;;;;;;3.38;0.60;;;;;;;25.05;39.47;101352.56;7385628;19;20010;-79
2022/06/15 12:08:05;;;;;;;3.75;0.55;;;;;;;25.10;38.78;101353.50;7384837;19;20054;-80
2022/06/15 12:11:00;;;;;;;1.67;0.40;;;;;;;25.11;38.70;101357.84;7387502;19;20033;-79